Latest Weather Observations for Broome Port

IDW60801

Issued at 4:33 pm WST Friday 20 October 2017 (issued every 30 minutes, with the page automatically refreshed every 10 minutes)

About weather observations | Map of weather stations | Latest weather observations for WA | Other Formats
Station Details ID: 003102 Name: BROOME NTC AWS Lat: -18.00 Lon: 122.22 Height: 0.0 m
Data from the previous 72 hours. | See also: Recent months for locations in Western Australia
Date/Time
WST
Temp
°C
App
Temp
°C
Dew
Point
°C
Rel
Hum
%
Delta-T
°C
Wind Press
QNH
hPa
Press
MSL
hPa
Rain since
9am
mm
Dir  Spd
km/h
Gust
km/h
Spd
kts
Gust
kts
20/04:30pm - - - - - NW 33 41 18 22 1007.3 1007.2 -
20/04:00pm 29.3 - - - - NW 32 43 17 23 1007.0 1006.9 -
20/03:30pm 29.4 - - - - NW 33 41 18 22 1007.0 1006.9 -
20/03:00pm 29.7 - - - - NNW 30 35 16 19 1007.0 1006.9 -
20/02:30pm 29.8 - - - - NNW 28 33 15 18 1007.4 1007.3 -
20/02:00pm 30.4 - - - - NNW 26 32 14 17 1007.2 1007.1 -
20/01:30pm 29.9 - - - - NW 20 26 11 14 1007.9 1007.8 -
20/01:00pm 30.4 - - - - NW 19 24 10 13 1008.1 1008.0 -
20/12:30pm 31.1 - - - - NNW 28 32 15 17 1008.2 1008.1 -
20/12:00pm 34.0 - - - - N 24 37 13 20 1008.1 1008.0 -
20/11:30am 33.6 - - - - ESE 11 15 6 8 1008.6 1008.5 -
20/11:00am 33.2 - - - - ESE 15 17 8 9 1009.1 1009.0 -
20/10:30am 32.1 - - - - ESE 20 24 11 13 1009.5 1009.4 -
20/10:00am 31.5 - - - - ESE 26 28 14 15 1009.7 1009.6 -
20/09:30am 30.1 - - - - SE 20 24 11 13 1009.9 1009.8 -
20/09:00am 29.3 - - - - SE 19 20 10 11 1010.0 1009.9 -
20/08:30am 28.3 - - - - ESE 15 19 8 10 1010.2 1010.1 -
20/08:00am 27.9 - - - - ESE 15 20 8 11 1010.2 1010.1 -
20/07:30am 26.8 - - - - ESE 22 24 12 13 1010.0 1009.9 -
20/07:00am 26.2 - - - - ESE 22 28 12 15 1009.7 1009.6 -
20/06:30am 26.0 - - - - ESE 26 30 14 16 1009.3 1009.2 -
20/06:00am 26.1 - - - - ESE 24 28 13 15 1008.6 1008.5 -
20/05:30am 26.4 - - - - E 28 32 15 17 1008.0 1007.9 -
20/05:00am 26.3 - - - - ESE 35 41 19 22 1007.5 1007.4 -
20/04:30am 28.0 - - - - SE 24 30 13 16 1006.9 1006.8 -
20/04:00am 27.5 - - - - ESE 24 28 13 15 1006.6 1006.5 -
20/03:30am 28.9 - - - - SE 28 32 15 17 1006.3 1006.2 -
20/03:00am 30.6 - - - - ESE 24 30 13 16 1006.0 1005.9 -
20/02:30am 31.7 - - - - SE 26 30 14 16 1005.8 1005.7 -
20/02:00am 32.2 - - - - SE 26 32 14 17 1005.8 1005.7 -
20/01:30am 32.9 - - - - SSE 19 30 10 16 1005.6 1005.5 -
20/01:00am 32.7 - - - - S 19 24 10 13 1005.7 1005.6 -
20/12:30am 33.2 - - - - S 17 30 9 16 1006.1 1006.0 -
20/12:00am 34.8 - - - - W 9 39 5 21 1006.1 1006.0 -
 
Date/Time
WST
Temp
°C
App
Temp
°C
Dew
Point
°C
Rel
Hum
%
Delta-T
°C
Wind Press
QNH
hPa
Press
MSL
hPa
Rain since
9am
mm
Dir  Spd
km/h
Gust
km/h
Spd
kts
Gust
kts
19/11:30pm 31.8 - - - - SW 13 28 7 15 1006.2 1006.1 -
19/11:00pm 30.0 - - - - WSW 22 28 12 15 1006.4 1006.3 -
19/10:30pm 30.0 - - - - WSW 20 24 11 13 1006.7 1006.6 -
19/10:00pm 30.2 - - - - WSW 22 26 12 14 1006.8 1006.7 -
19/09:30pm 30.6 - - - - SW 24 28 13 15 1006.9 1006.8 -
19/09:00pm 30.8 - - - - SW 22 26 12 14 1006.9 1006.8 -
19/08:30pm 31.1 - - - - WSW 22 28 12 15 1006.6 1006.5 -
19/08:00pm 31.4 - - - - WSW 30 35 16 19 1006.1 1006.0 -
19/07:30pm 31.2 - - - - WSW 32 39 17 21 1005.7 1005.6 -
19/07:00pm 31.6 - - - - WSW 33 41 18 22 1005.3 1005.2 -
19/06:30pm 32.3 - - - - WSW 37 43 20 23 1004.9 1004.8 -
19/06:00pm 31.9 - - - - WSW 35 41 19 22 1004.5 1004.4 -
19/05:30pm - - - - - WSW 33 43 18 23 1004.1 1004.0 -
19/05:00pm - - - - - WSW 35 41 19 22 1003.8 1003.7 -
19/04:30pm - - - - - W 28 39 15 21 1003.6 1003.5 -
19/04:00pm - - - - - W 33 44 18 24 1003.5 1003.4 -
19/03:30pm - - - - - W 32 44 17 24 1003.5 1003.4 -
19/03:00pm - - - - - W 30 43 16 23 1003.7 1003.6 -
19/02:30pm - - - - - W 30 37 16 20 1003.9 1003.8 -
19/02:00pm - - - - - W 28 33 15 18 1004.2 1004.1 -
19/01:30pm - - - - - W 24 30 13 16 1004.5 1004.4 -
19/01:00pm 32.2 - - - - W 24 32 13 17 1004.9 1004.8 -
19/12:30pm 32.5 - - - - W 20 24 11 13 1005.4 1005.3 -
19/12:00pm 32.0 - - - - W 17 20 9 11 1005.9 1005.8 -
19/11:30am 31.9 - - - - WNW 17 20 9 11 1006.3 1006.2 -
19/11:00am 34.0 - - - - WSW 7 11 4 6 1006.6 1006.5 -
19/10:30am 34.8 - - - - S 2 6 1 3 1006.9 1006.8 -
19/10:00am 34.1 - - - - SSW 6 9 3 5 1007.2 1007.1 -
19/09:30am 31.8 - - - - ESE 4 7 2 4 1007.4 1007.3 -
19/09:00am 30.2 - - - - SE 4 6 2 3 1007.5 1007.4 -
19/08:30am 29.3 - - - - SSE 6 7 3 4 1007.7 1007.6 -
19/08:00am 28.8 - - - - SSE 9 11 5 6 1007.6 1007.5 -
19/07:30am 28.6 - - - - S 9 15 5 8 1007.5 1007.4 -
19/07:00am 28.9 - - - - SSE 6 15 3 8 1007.3 1007.2 -
19/06:30am 28.8 - - - - SSW 17 26 9 14 1007.1 1007.0 -
19/06:00am 28.7 - - - - SSW 19 28 10 15 1007.1 1007.0 -
19/05:30am 29.7 - - - - SW 20 28 11 15 1006.9 1006.8 -
19/05:00am 28.9 - - - - SW 22 30 12 16 1006.7 1006.6 -
19/04:30am 28.4 - - - - WSW 22 26 12 14 1006.4 1006.3 -
19/04:00am 28.3 - - - - WSW 22 28 12 15 1006.2 1006.1 -
19/03:30am 28.0 - - - - WSW 30 33 16 18 1005.9 1005.8 -
19/03:00am 28.1 - - - - SW 30 35 16 19 1005.9 1005.8 -
19/02:30am 28.0 - - - - WSW 28 35 15 19 1005.9 1005.8 -
19/02:00am 28.0 - - - - WSW 30 37 16 20 1006.0 1005.9 -
19/01:30am 28.0 - - - - SW 33 39 18 21 1006.2 1006.1 -
19/01:00am 27.9 - - - - SW 33 41 18 22 1006.4 1006.3 -
19/12:30am 28.1 - - - - WSW 28 37 15 20 1006.4 1006.3 -
19/12:00am 28.1 - - - - WSW 30 37 16 20 1006.7 1006.6 -
 
Date/Time
WST
Temp
°C
App
Temp
°C
Dew
Point
°C
Rel
Hum
%
Delta-T
°C
Wind Press
QNH
hPa
Press
MSL
hPa
Rain since
9am
mm
Dir  Spd
km/h
Gust
km/h
Spd
kts
Gust
kts
18/11:30pm 27.8 - - - - WSW 26 32 14 17 1007.0 1006.9 -
18/11:00pm 27.9 - - - - WSW 28 35 15 19 1007.5 1007.4 -
18/10:30pm 27.8 - - - - WSW 26 33 14 18 1007.8 1007.7 -
18/10:00pm 28.1 - - - - WSW 30 35 16 19 1008.0 1007.9 -
18/09:30pm 28.2 - - - - WSW 22 30 12 16 1008.3 1008.2 -
18/09:00pm 28.3 - - - - WSW 19 22 10 12 1008.3 1008.2 -
18/08:30pm 28.2 - - - - W 15 20 8 11 1008.2 1008.1 -
18/08:00pm 28.1 - - - - W 15 19 8 10 1007.9 1007.8 -
18/07:30pm 27.9 - - - - WNW 19 22 10 12 1007.6 1007.5 -
18/07:00pm 27.8 - - - - WNW 24 28 13 15 1007.1 1007.0 -
18/06:30pm 27.8 - - - - WNW 20 28 11 15 1006.8 1006.7 -
18/06:00pm 27.8 - - - - WNW 22 28 12 15 1006.4 1006.3 -
18/05:30pm 27.8 - - - - WNW 26 32 14 17 1006.1 1006.0 -
18/05:00pm 27.6 - - - - WNW 26 33 14 18 1005.7 1005.6 -
18/04:30pm 27.8 - - - - WNW 30 37 16 20 1005.5 1005.4 -
18/04:00pm 27.8 - - - - WNW 30 35 16 19 1005.4 1005.3 -
18/03:30pm 27.5 - - - - WNW 32 37 17 20 1005.5 1005.4 -
18/03:00pm 27.6 - - - - WNW 32 37 17 20 1005.6 1005.5 -
18/02:30pm 27.4 - - - - WNW 33 39 18 21 1005.6 1005.5 -
18/02:00pm 27.2 - - - - WNW 33 37 18 20 1005.7 1005.6 -
18/01:30pm 27.3 - - - - WNW 30 35 16 19 1006.1 1006.0 -
18/01:00pm 27.3 - - - - WNW 30 33 16 18 1006.4 1006.3 -
18/12:30pm 27.3 - - - - WNW 24 30 13 16 1006.8 1006.7 -
18/12:00pm 27.4 - - - - WNW 26 30 14 16 1007.2 1007.1 -
18/11:30am 27.3 - - - - WNW 24 30 13 16 1007.5 1007.4 -
18/11:00am 27.3 - - - - WNW 22 26 12 14 1007.9 1007.8 -
18/10:30am 27.3 - - - - WNW 20 24 11 13 1008.3 1008.2 -
18/10:00am 27.5 - - - - W 19 24 10 13 1008.6 1008.5 -
18/09:30am 27.7 - - - - WSW 19 24 10 13 1008.9 1008.8 -
18/09:00am 27.4 - - - - WSW 19 22 10 12 1009.0 1008.9 -
18/08:30am 27.2 - - - - WSW 20 26 11 14 1009.0 1008.9 -
18/08:00am 27.3 - - - - SW 20 24 11 13 1008.8 1008.7 -
18/07:30am 27.4 - - - - SW 22 26 12 14 1008.4 1008.3 -
18/07:00am 27.3 - - - - SW 22 28 12 15 1008.3 1008.2 -
18/06:30am 27.1 - - - - SW 28 33 15 18 1008.0 1007.9 -
18/06:00am 26.8 - - - - WSW 24 30 13 16 1007.7 1007.6 -
18/05:30am 26.9 - - - - WSW 26 32 14 17 1007.6 1007.5 -
18/05:00am 26.8 - - - - WSW 28 35 15 19 1007.3 1007.2 -
18/04:30am 26.8 - - - - WSW 33 37 18 20 1007.0 1006.9 -
18/04:00am 26.8 - - - - WSW 32 39 17 21 1006.7 1006.6 -
18/03:30am 26.9 - - - - WSW 33 39 18 21 1006.5 1006.4 -
18/03:00am 27.0 - - - - WSW 33 39 18 21 1006.2 1006.1 -
18/02:30am 27.0 - - - - W 28 35 15 19 1006.2 1006.1 -
18/02:00am 27.1 - - - - W 26 33 14 18 1006.3 1006.2 -
18/01:30am 27.1 - - - - W 26 32 14 17 1006.4 1006.3 -
18/01:00am 27.2 - - - - W 22 30 12 16 1006.7 1006.6 -
18/12:30am 27.2 - - - - W 24 33 13 18 1007.0 1006.9 -
18/12:00am 27.2 - - - - W 20 30 11 16 1007.3 1007.2 -
 
Date/Time
WST
Temp
°C
App
Temp
°C
Dew
Point
°C
Rel
Hum
%
Delta-T
°C
Wind Press
QNH
hPa
Press
MSL
hPa
Rain since
9am
mm
Dir  Spd
km/h
Gust
km/h
Spd
kts
Gust
kts
17/11:30pm 27.0 - - - - W 26 33 14 18 1007.7 1007.6 -
17/11:00pm 27.0 - - - - W 20 28 11 15 1008.0 1007.9 -
17/10:30pm 27.1 - - - - W 24 30 13 16 1008.1 1008.0 -
17/10:00pm 27.1 - - - - W 24 28 13 15 1008.2 1008.1 -
17/09:30pm 27.1 - - - - WNW 26 32 14 17 1008.0 1007.9 -
17/09:00pm 27.1 - - - - W 26 32 14 17 1008.0 1007.9 -
17/08:30pm 27.1 - - - - W 24 30 13 16 1007.9 1007.8 -
17/08:00pm 27.1 - - - - W 28 35 15 19 1007.7 1007.6 -
17/07:30pm 27.1 - - - - W 24 30 13 16 1007.4 1007.3 -
17/07:00pm 27.3 - - - - W 28 37 15 20 1006.9 1006.8 -
17/06:30pm 27.5 - - - - W 30 39 16 21 1006.4 1006.3 -
17/06:00pm 27.7 - - - - W 30 37 16 20 1005.9 1005.8 -
17/05:30pm 27.8 - - - - W 28 37 15 20 1005.6 1005.5 -
17/05:00pm 27.6 - - - - W 33 41 18 22 1005.1 1005.0 -

Other Formats:

Comma delimited format used in spreadsheet applications
http://www.bom.gov.au/fwo/IDW60801/IDW60801.95202.axf

JavaScript Object Notation format (JSON) in row-major order
http://www.bom.gov.au/fwo/IDW60801/IDW60801.95202.json